Time;durP1;ratioP1;P1;durP2;ratioP2;P2;SDS_P1;SDS_P2;PMS_P1;PMS_P2;Temp;Humidity;BMP_temperature;BMP_pressure;BME280_temperature;BME280_humidity;BME280_pressure;Samples;Min_cycle;Max_cycle;Signal;HPM_P1;HPM_P2
2022/02/23 00:02:05;;;;;;;8.93;1.00;;;7.90;99.90;;;;;;4993824;28;20218;-72
2022/02/23 00:04:32;;;;;;;4.20;1.03;;;7.90;99.90;;;;;;4993795;28;20212;-73
2022/02/23 00:06:58;;;;;;;5.20;0.77;;;7.80;99.90;;;;;;4993568;28;20214;-73
2022/02/23 00:09:25;;;;;;;5.03;0.60;;;7.80;99.90;;;;;;4992605;28;20230;-81
2022/02/23 00:11:53;;;;;;;6.30;0.90;;;7.80;99.90;;;;;;4993304;28;20210;-82
2022/02/23 00:14:20;;;;;;;3.90;0.70;;;7.70;99.90;;;;;;4993934;28;20210;-82
2022/02/23 00:16:47;;;;;;;3.50;0.90;;;7.70;99.90;;;;;;4993855;28;20213;-76
2022/02/23 00:19:14;;;;;;;5.20;1.03;;;7.50;99.90;;;;;;4993448;28;20792;-73
2022/02/23 00:21:40;;;;;;;5.30;0.70;;;7.50;99.90;;;;;;4992996;28;20203;-73
2022/02/23 00:24:08;;;;;;;1.33;0.70;;;7.40;99.90;;;;;;4993576;28;20205;-72
2022/02/23 00:26:34;;;;;;;6.83;0.77;;;7.30;99.90;;;;;;4993659;28;20301;-72
2022/02/23 00:29:03;;;;;;;4.03;0.80;;;7.40;99.90;;;;;;4992804;28;20227;-73
2022/02/23 00:31:30;;;;;;;2.97;1.27;;;7.30;99.90;;;;;;4993034;28;20662;-73
2022/02/23 00:33:57;;;;;;;3.17;0.70;;;7.30;99.90;;;;;;4993206;28;20206;-72
2022/02/23 00:36:24;;;;;;;3.30;0.80;;;7.30;99.90;;;;;;4993679;28;20218;-73
2022/02/23 00:38:50;;;;;;;2.00;0.83;;;7.20;99.90;;;;;;4993235;28;20234;-72
2022/02/23 00:41:17;;;;;;;5.27;0.80;;;7.20;99.90;;;;;;4993035;28;20206;-76
2022/02/23 00:43:44;;;;;;;6.33;0.80;;;7.20;99.90;;;;;;4993176;28;20297;-77
2022/02/23 00:46:12;;;;;;;3.77;1.00;;;7.10;99.90;;;;;;4992676;28;20208;-73
2022/02/23 00:48:39;;;;;;;4.90;0.83;;;7.10;99.90;;;;;;4993162;28;20206;-72
2022/02/23 00:51:06;;;;;;;4.57;1.00;;;7.00;99.90;;;;;;4993405;28;20571;-76
2022/02/23 00:53:33;;;;;;;4.33;1.03;;;6.80;99.90;;;;;;4993330;28;20218;-74
2022/02/23 00:56:00;;;;;;;5.07;1.17;;;6.80;99.90;;;;;;4993036;28;20202;-73
2022/02/23 00:58:26;;;;;;;1.53;0.87;;;6.70;99.90;;;;;;4993047;28;20234;-79
2022/02/23 01:00:53;;;;;;;5.83;0.90;;;6.60;99.90;;;;;;4992930;28;20233;-75
2022/02/23 01:03:21;;;;;;;9.30;1.20;;;6.60;99.90;;;;;;4993149;28;20218;-73
2022/02/23 01:05:48;;;;;;;5.63;0.93;;;6.50;99.90;;;;;;4993254;28;20668;-73
2022/02/23 01:08:15;;;;;;;1.80;1.00;;;6.50;99.90;;;;;;4993361;28;20214;-72
2022/02/23 01:10:42;;;;;;;2.93;1.20;;;6.40;99.90;;;;;;4996817;28;20226;-82
2022/02/23 01:13:09;;;;;;;3.17;0.70;;;6.50;99.90;;;;;;4997014;28;20206;-74
2022/02/23 01:15:36;;;;;;;5.83;1.00;;;6.40;99.90;;;;;;4996767;28;20213;-72
2022/02/23 01:18:03;;;;;;;5.10;1.00;;;6.50;99.90;;;;;;4996559;28;20247;-73
2022/02/23 01:20:31;;;;;;;3.27;0.97;;;6.50;99.90;;;;;;4996369;28;20222;-72
2022/02/23 01:22:59;;;;;;;2.63;0.70;;;6.50;99.90;;;;;;4997142;28;20210;-79
2022/02/23 01:25:26;;;;;;;1.30;0.60;;;6.40;99.90;;;;;;4996625;28;20238;-73
2022/02/23 01:27:53;;;;;;;1.57;0.80;;;6.30;99.90;;;;;;4996564;28;20213;-73
2022/02/23 01:30:20;;;;;;;5.13;0.90;;;6.30;99.90;;;;;;4996452;28;20234;-73
2022/02/23 01:32:47;;;;;;;2.90;1.00;;;6.30;99.90;;;;;;4996732;28;20206;-81
2022/02/23 01:35:14;;;;;;;3.57;0.90;;;6.20;99.90;;;;;;4996896;28;20289;-72
2022/02/23 01:37:42;;;;;;;4.50;1.00;;;6.20;99.90;;;;;;4996160;28;20195;-72
2022/02/23 01:40:10;;;;;;;2.23;0.93;;;6.20;99.90;;;;;;4993605;28;20238;-72
2022/02/23 01:42:37;;;;;;;5.67;1.20;;;6.10;99.90;;;;;;4995371;28;20211;-73
2022/02/23 01:45:05;;;;;;;2.30;0.90;;;6.10;99.90;;;;;;4996172;28;20553;-73
2022/02/23 01:47:31;;;;;;;5.67;0.80;;;6.10;99.90;;;;;;4996569;28;20206;-73
2022/02/23 01:49:58;;;;;;;1.53;0.80;;;6.10;99.90;;;;;;4996366;28;20275;-82
2022/02/23 01:52:25;;;;;;;4.43;0.90;;;6.10;99.90;;;;;;4996292;28;20202;-73
2022/02/23 01:54:53;;;;;;;6.03;1.30;;;6.00;99.90;;;;;;4995452;28;20626;-81
2022/02/23 01:57:20;;;;;;;2.30;0.80;;;5.90;99.90;;;;;;4995934;28;20211;-72
2022/02/23 01:59:47;;;;;;;3.37;1.20;;;5.90;99.90;;;;;;5023352;23;20883;-76
2022/02/23 02:02:15;;;;;;;6.53;0.80;;;5.80;99.90;;;;;;5015688;28;20212;-77
2022/02/23 02:04:42;;;;;;;3.87;1.10;;;5.70;99.90;;;;;;5015878;28;20202;-75
2022/02/23 02:07:09;;;;;;;3.63;0.67;;;5.70;99.90;;;;;;5015806;28;20676;-77
2022/02/23 02:09:35;;;;;;;4.97;0.97;;;5.70;99.90;;;;;;5015530;28;20226;-77
2022/02/23 02:12:04;;;;;;;5.40;1.13;;;5.80;99.90;;;;;;5015767;28;20293;-77
2022/02/23 02:14:31;;;;;;;2.57;0.87;;;5.70;99.90;;;;;;5015447;28;20208;-74
2022/02/23 02:16:58;;;;;;;2.57;0.87;;;5.70;99.90;;;;;;5015632;28;20577;-74
2022/02/23 02:19:25;;;;;;;5.90;0.90;;;5.80;99.90;;;;;;5014537;28;20241;-74
2022/02/23 02:21:54;;;;;;;2.50;0.80;;;5.80;99.90;;;;;;5013409;28;20231;-75
2022/02/23 02:24:22;;;;;;;1.33;0.80;;;5.70;99.90;;;;;;4995367;28;20210;-74
2022/02/23 02:26:49;;;;;;;2.27;0.80;;;5.70;99.90;;;;;;4995495;28;20206;-73
2022/02/23 02:29:16;;;;;;;4.73;0.77;;;5.70;99.90;;;;;;4995347;28;20241;-74
2022/02/23 02:31:43;;;;;;;4.00;1.00;;;5.70;99.90;;;;;;4995242;28;20584;-74
2022/02/23 02:34:09;;;;;;;7.40;0.90;;;5.60;99.90;;;;;;4995542;28;20210;-74
2022/02/23 02:36:36;;;;;;;5.33;0.80;;;5.60;99.90;;;;;;4995537;28;20586;-73
2022/02/23 02:39:06;;;;;;;4.77;1.40;;;5.50;99.90;;;;;;4995081;28;20234;-74
2022/02/23 02:41:33;;;;;;;2.87;1.07;;;5.50;99.90;;;;;;4995540;28;20213;-74
2022/02/23 02:44:00;;;;;;;4.37;0.77;;;5.50;99.90;;;;;;4995371;28;20210;-74
2022/02/23 02:46:26;;;;;;;5.53;0.83;;;5.50;99.90;;;;;;4995315;28;20213;-73
2022/02/23 02:48:54;;;;;;;3.07;0.80;;;5.50;99.90;;;;;;4995315;28;20206;-75
2022/02/23 02:51:21;;;;;;;2.87;0.70;;;5.50;99.90;;;;;;4995066;28;20207;-73
2022/02/23 02:53:48;;;;;;;4.37;0.80;;;5.40;99.90;;;;;;4994980;28;20662;-74
2022/02/23 02:56:16;;;;;;;1.23;0.70;;;5.40;99.90;;;;;;4994933;28;20556;-74
2022/02/23 02:58:43;;;;;;;5.73;1.00;;;5.30;99.90;;;;;;4995035;28;20218;-75
2022/02/23 03:01:10;;;;;;;4.50;0.80;;;5.40;99.90;;;;;;4995005;28;20221;-74
2022/02/23 03:03:37;;;;;;;3.77;0.90;;;5.40;99.90;;;;;;4994899;28;20206;-73
2022/02/23 03:06:04;;;;;;;3.57;0.87;;;5.40;99.90;;;;;;4994628;28;20212;-74
2022/02/23 03:08:30;;;;;;;3.10;0.80;;;5.50;99.90;;;;;;4994858;28;20206;-74
2022/02/23 03:10:57;;;;;;;4.00;0.80;;;5.50;99.90;;;;;;4994621;28;20705;-74
2022/02/23 03:13:25;;;;;;;3.10;0.70;;;5.50;99.90;;;;;;4994851;28;20213;-74
2022/02/23 03:15:52;;;;;;;1.07;0.60;;;5.60;99.90;;;;;;4994713;28;20565;-73
2022/02/23 03:18:19;;;;;;;2.40;0.90;;;5.60;99.90;;;;;;4994826;28;20297;-74
2022/02/23 03:20:46;;;;;;;4.33;0.60;;;5.60;99.90;;;;;;4993769;28;20238;-75
2022/02/23 03:23:12;;;;;;;2.53;0.70;;;5.60;99.90;;;;;;4994622;28;20565;-73
2022/02/23 03:25:39;;;;;;;4.30;0.60;;;5.60;99.90;;;;;;4994925;28;20212;-74
2022/02/23 03:28:06;;;;;;;4.17;0.73;;;5.50;99.90;;;;;;4994642;28;20206;-73
2022/02/23 03:30:34;;;;;;;1.93;0.80;;;5.60;99.90;;;;;;4994557;28;20226;-73
2022/02/23 03:33:01;;;;;;;5.30;0.60;;;5.70;99.90;;;;;;4993300;28;20289;-73
2022/02/23 03:35:28;;;;;;;6.50;0.93;;;5.70;99.90;;;;;;4994776;28;20264;-73
2022/02/23 03:37:55;;;;;;;3.57;1.10;;;5.70;99.90;;;;;;4994302;28;20213;-73
2022/02/23 03:40:22;;;;;;;5.63;0.80;;;5.70;99.90;;;;;;4994250;28;20234;-73
2022/02/23 03:42:49;;;;;;;2.77;0.60;;;5.60;99.90;;;;;;4994248;28;20301;-73
2022/02/23 03:45:16;;;;;;;2.77;0.83;;;5.50;99.90;;;;;;4993898;28;20210;-73
2022/02/23 03:47:44;;;;;;;3.77;1.03;;;5.50;99.90;;;;;;4994031;28;20203;-74
2022/02/23 03:50:11;;;;;;;6.73;1.10;;;5.50;99.90;;;;;;4993841;28;20233;-73
2022/02/23 03:52:38;;;;;;;3.00;0.80;;;5.50;99.90;;;;;;4994141;28;20213;-73
2022/02/23 03:55:06;;;;;;;4.27;0.70;;;5.50;99.90;;;;;;4993839;28;20214;-74
2022/02/23 03:57:33;;;;;;;3.63;1.07;;;5.40;99.90;;;;;;4994038;28;20295;-73
2022/02/23 04:00:00;;;;;;;6.60;0.60;;;5.50;99.90;;;;;;4993453;28;20249;-74
2022/02/23 04:02:26;;;;;;;5.70;0.67;;;5.50;99.90;;;;;;4992910;28;20216;-74
2022/02/23 04:04:55;;;;;;;3.60;0.80;;;5.50;99.90;;;;;;4994032;28;20209;-74
2022/02/23 04:07:22;;;;;;;4.47;1.07;;;5.40;99.90;;;;;;4993915;28;20214;-74
2022/02/23 04:09:48;;;;;;;4.13;0.93;;;5.40;99.90;;;;;;4993628;28;20230;-73
2022/02/23 04:12:15;;;;;;;6.07;1.17;;;5.40;99.90;;;;;;4993689;28;20246;-73
2022/02/23 04:14:42;;;;;;;4.70;0.90;;;5.40;99.90;;;;;;4993727;28;20213;-74
2022/02/23 04:17:09;;;;;;;0.80;0.40;;;5.40;99.90;;;;;;4993979;28;20211;-74
2022/02/23 04:19:36;;;;;;;3.27;0.90;;;5.30;99.90;;;;;;4993781;28;20242;-74
2022/02/23 04:22:06;;;;;;;2.37;0.67;;;5.30;99.90;;;;;;4993469;28;20206;-73
2022/02/23 04:24:33;;;;;;;5.50;0.70;;;5.30;99.90;;;;;;4993303;28;20576;-73
2022/02/23 04:27:00;;;;;;;4.73;0.77;;;5.30;99.90;;;;;;4993293;28;20649;-74
2022/02/23 04:29:27;;;;;;;6.30;0.93;;;5.20;99.90;;;;;;4993364;28;20735;-74
2022/02/23 04:31:54;;;;;;;3.47;0.90;;;5.20;99.90;;;;;;4993693;28;20216;-73
2022/02/23 04:34:21;;;;;;;4.47;1.17;;;5.20;99.90;;;;;;4993633;28;20211;-73
2022/02/23 04:36:48;;;;;;;4.80;0.60;;;5.20;99.90;;;;;;4993701;28;20577;-73
2022/02/23 04:39:16;;;;;;;4.90;0.90;;;5.10;99.90;;;;;;4993185;28;20222;-74
2022/02/23 04:41:43;;;;;;;3.00;0.73;;;5.10;99.90;;;;;;4993272;28;20206;-73
2022/02/23 04:44:10;;;;;;;2.60;0.70;;;5.10;99.90;;;;;;4996188;28;20205;-73
2022/02/23 04:46:37;;;;;;;4.87;0.93;;;5.10;99.90;;;;;;4997357;28;20206;-74
2022/02/23 04:49:04;;;;;;;3.97;0.93;;;5.00;99.90;;;;;;4997387;28;20228;-73
2022/02/23 04:51:31;;;;;;;2.97;0.80;;;5.10;99.90;;;;;;4997234;28;20230;-76
2022/02/23 04:53:58;;;;;;;1.30;0.60;;;5.00;99.90;;;;;;4997227;28;20210;-75
2022/02/23 04:56:27;;;;;;;1.73;0.70;;;5.00;99.90;;;;;;4996618;28;20288;-76
2022/02/23 04:58:54;;;;;;;6.13;0.93;;;5.10;99.90;;;;;;4997195;28;20211;-76
2022/02/23 05:01:21;;;;;;;7.67;1.97;;;5.00;99.90;;;;;;4997157;28;20241;-76
2022/02/23 05:03:49;;;;;;;5.67;1.00;;;5.00;99.90;;;;;;4997063;28;20676;-74
2022/02/23 05:06:15;;;;;;;4.27;1.17;;;5.00;99.90;;;;;;4996899;28;20268;-74
2022/02/23 05:08:42;;;;;;;5.10;0.73;;;5.00;99.90;;;;;;4997091;28;20210;-74
2022/02/23 05:11:09;;;;;;;2.67;0.70;;;5.10;99.90;;;;;;4996934;28;20217;-76
2022/02/23 05:13:37;;;;;;;3.83;0.60;;;5.10;99.90;;;;;;4997313;28;20289;-74
2022/02/23 05:16:05;;;;;;;4.83;0.70;;;5.10;99.90;;;;;;4996842;28;20554;-77
2022/02/23 05:18:32;;;;;;;3.50;1.03;;;5.10;99.90;;;;;;4996852;28;20203;-76
2022/02/23 05:21:01;;;;;;;3.27;0.93;;;5.10;99.90;;;;;;4996906;28;20242;-76
2022/02/23 05:23:29;;;;;;;2.80;0.93;;;5.10;99.90;;;;;;4996558;28;20233;-76
2022/02/23 05:25:57;;;;;;;3.47;0.60;;;5.00;99.90;;;;;;4997208;28;20210;-76
2022/02/23 05:28:24;;;;;;;2.33;0.93;;;5.00;99.90;;;;;;4996639;28;20211;-76
2022/02/23 05:30:53;;;;;;;6.03;0.90;;;5.00;99.90;;;;;;4996542;28;20247;-76
2022/02/23 05:33:19;;;;;;;2.33;0.47;;;4.90;99.90;;;;;;4996485;28;20216;-76
2022/02/23 05:35:46;;;;;;;2.50;1.03;;;4.80;99.90;;;;;;5002551;28;20212;-74
2022/02/23 05:38:13;;;;;;;3.90;1.43;;;4.70;99.90;;;;;;5015120;28;20652;-75
2022/02/23 05:40:40;;;;;;;1.93;0.60;;;4.60;99.90;;;;;;5015166;28;20269;-75
2022/02/23 05:43:07;;;;;;;4.23;1.00;;;4.50;99.90;;;;;;5015782;28;20264;-76
2022/02/23 05:45:34;;;;;;;7.20;0.80;;;4.40;99.90;;;;;;5015635;28;20233;-77
2022/02/23 05:48:02;;;;;;;4.17;0.90;;;4.30;99.90;;;;;;5015823;28;20205;-76
2022/02/23 05:50:29;;;;;;;4.17;1.30;;;4.20;99.90;;;;;;5015935;28;20226;-75
2022/02/23 05:52:56;;;;;;;2.60;0.60;;;4.20;99.90;;;;;;5013773;28;20205;-75
2022/02/23 05:55:23;;;;;;;2.57;0.90;;;4.10;99.90;;;;;;5014948;28;20205;-76
2022/02/23 05:57:50;;;;;;;3.03;0.77;;;4.20;99.90;;;;;;5015970;28;20609;-75
2022/02/23 06:00:17;;;;;;;3.80;0.93;;;4.10;99.90;;;;;;5015010;28;20248;-74
2022/02/23 06:02:44;;;;;;;4.50;0.83;;;4.10;99.90;;;;;;5014575;28;20505;-76
2022/02/23 06:05:12;;;;;;;4.30;1.17;;;4.00;99.90;;;;;;5015151;28;20209;-77
2022/02/23 06:07:39;;;;;;;3.83;0.70;;;4.00;99.90;;;;;;5015516;28;20210;-76
2022/02/23 06:10:07;;;;;;;6.13;1.00;;;4.10;99.90;;;;;;5014942;28;20221;-73
2022/02/23 06:12:34;;;;;;;3.43;1.10;;;4.10;99.90;;;;;;5015377;28;20206;-75
2022/02/23 06:15:00;;;;;;;3.00;0.93;;;4.10;99.90;;;;;;5006527;28;20203;-74
2022/02/23 06:17:28;;;;;;;2.73;0.60;;;4.10;99.90;;;;;;5003424;28;20194;-75
2022/02/23 06:19:55;;;;;;;4.13;0.97;;;4.10;99.90;;;;;;5014822;28;20221;-76
2022/02/23 06:22:23;;;;;;;3.57;1.23;;;4.00;99.90;;;;;;5014983;28;20210;-75
2022/02/23 06:24:50;;;;;;;5.23;1.40;;;4.00;99.90;;;;;;5014614;28;20210;-77
2022/02/23 06:27:17;;;;;;;4.23;1.17;;;4.00;99.90;;;;;;5014798;28;20679;-76
2022/02/23 06:29:44;;;;;;;1.57;0.90;;;3.80;99.90;;;;;;5015054;28;20225;-74
2022/02/23 06:32:11;;;;;;;6.47;1.00;;;3.80;99.90;;;;;;5014655;28;20205;-74
2022/02/23 06:34:39;;;;;;;4.97;1.10;;;3.70;99.90;;;;;;5012459;28;20485;-74
2022/02/23 06:37:06;;;;;;;3.20;1.13;;;3.80;99.90;;;;;;5014558;28;20660;-74
2022/02/23 06:39:37;;;;;;;3.73;1.00;;;3.90;99.90;;;;;;5014650;28;20243;-75
2022/02/23 06:42:05;;;;;;;2.93;1.07;;;4.00;99.90;;;;;;5013488;28;20237;-74
2022/02/23 06:44:32;;;;;;;5.00;1.13;;;3.90;99.90;;;;;;5013662;28;20194;-74
2022/02/23 06:47:00;;;;;;;3.27;0.70;;;3.90;99.90;;;;;;5013558;28;20240;-74
2022/02/23 06:49:28;;;;;;;4.57;0.80;;;3.90;99.90;;;;;;5010152;28;20241;-74
2022/02/23 06:51:58;;;;;;;2.77;0.80;;;4.00;99.90;;;;;;5010954;28;20216;-75
2022/02/23 06:54:26;;;;;;;2.13;0.87;;;4.00;99.90;;;;;;5013238;28;20225;-76
2022/02/23 06:56:55;;;;;;;3.87;1.10;;;4.00;99.90;;;;;;5014633;28;20272;-76
2022/02/23 06:59:22;;;;;;;3.13;1.10;;;4.00;99.90;;;;;;5014293;28;20240;-75
2022/02/23 07:01:49;;;;;;;2.13;1.00;;;4.00;99.90;;;;;;5014472;28;20237;-75
2022/02/23 07:04:16;;;;;;;1.93;1.00;;;4.10;99.90;;;;;;5014519;28;20209;-75
2022/02/23 07:06:43;;;;;;;4.23;1.30;;;4.10;99.90;;;;;;5014164;28;20216;-75
2022/02/23 07:09:10;;;;;;;5.80;1.27;;;4.10;99.90;;;;;;5013665;28;20233;-77
2022/02/23 07:11:38;;;;;;;4.37;1.13;;;4.10;99.90;;;;;;5010290;28;20198;-75
2022/02/23 07:14:08;;;;;;;3.17;1.20;;;4.10;99.90;;;;;;5013345;28;20205;-76
2022/02/23 07:16:37;;;;;;;5.30;1.10;;;4.20;99.90;;;;;;5011694;28;20212;-75
2022/02/23 07:19:04;;;;;;;3.67;1.50;;;4.20;99.90;;;;;;5008987;28;20221;-75
2022/02/23 07:21:31;;;;;;;3.57;1.57;;;4.30;99.90;;;;;;5031545;28;20282;-77
2022/02/23 07:23:59;;;;;;;6.47;1.30;;;4.50;99.90;;;;;;5033758;28;20232;-74
2022/02/23 07:26:26;;;;;;;5.17;1.37;;;5.00;99.90;;;;;;5032609;28;20201;-74
2022/02/23 07:28:53;;;;;;;7.80;1.63;;;5.60;99.90;;;;;;5013160;28;20210;-76
2022/02/23 07:31:22;;;;;;;7.60;1.67;;;6.40;99.90;;;;;;5009876;28;20203;-76
2022/02/23 07:33:49;;;;;;;4.57;1.40;;;7.10;99.90;;;;;;4994193;28;20209;-77
2022/02/23 07:36:16;;;;;;;2.87;1.27;;;7.70;99.90;;;;;;4994171;28;20302;-77
2022/02/23 07:38:45;;;;;;;3.87;1.17;;;8.20;99.90;;;;;;4993891;28;20214;-76
2022/02/23 07:41:22;;;;;;;3.13;1.50;;;8.90;99.90;;;;;;4994087;28;20262;-76
2022/02/23 07:43:49;;;;;;;4.33;1.13;;;9.50;99.90;;;;;;4994437;28;20210;-75
2022/02/23 07:46:17;;;;;;;2.80;1.10;;;10.20;99.90;;;;;;5002316;28;20208;-76
2022/02/23 07:48:47;;;;;;;4.33;0.80;;;10.80;99.90;;;;;;5013461;28;20201;-77
2022/02/23 07:51:14;;;;;;;6.27;1.30;;;11.10;99.90;;;;;;5013198;28;20293;-77
2022/02/23 07:53:41;;;;;;;5.20;1.70;;;11.60;99.90;;;;;;5013138;28;20259;-77
2022/02/23 07:56:08;;;;;;;9.60;2.13;;;12.10;99.90;;;;;;5013605;28;20205;-76
2022/02/23 07:58:35;;;;;;;7.23;1.50;;;12.40;99.90;;;;;;5025935;22;20225;-73
2022/02/23 08:01:02;;;;;;;5.37;1.23;;;12.80;99.90;;;;;;5012643;28;20233;-72
2022/02/23 08:03:29;;;;;;;3.80;1.30;;;13.00;99.90;;;;;;5012888;28;20679;-72
2022/02/23 08:05:57;;;;;;;6.03;1.27;;;13.30;99.90;;;;;;5008088;28;20224;-72
2022/02/23 08:08:23;;;;;;;6.60;1.00;;;13.00;99.90;;;;;;5012782;28;20206;-72
2022/02/23 08:10:53;;;;;;;4.00;1.30;;;12.50;99.90;;;;;;5011751;28;21010;-72
2022/02/23 08:13:20;;;;;;;7.93;1.20;;;11.80;99.90;;;;;;5010316;28;20208;-72
2022/02/23 08:21:19;;;;;;;6.17;1.10;;;11.70;99.90;;;;;;4992791;28;20241;-72
2022/02/23 08:23:46;;;;;;;3.93;1.40;;;11.70;99.90;;;;;;4992611;28;20736;-72
2022/02/23 08:26:13;;;;;;;3.20;1.37;;;11.80;99.90;;;;;;4993095;28;20223;-74
2022/02/23 08:28:40;;;;;;;7.87;1.57;;;11.60;99.90;;;;;;4993257;28;20672;-74
2022/02/23 08:31:07;;;;;;;4.40;1.00;;;11.50;99.90;;;;;;4992946;28;20572;-72
2022/02/23 08:33:34;;;;;;;8.27;1.73;;;11.30;99.90;;;;;;4993018;28;20547;-72
2022/02/23 08:36:01;;;;;;;5.80;1.30;;;11.50;99.90;;;;;;4994313;28;20542;-72
2022/02/23 08:38:30;;;;;;;3.60;0.97;;;11.60;99.90;;;;;;5012647;28;20296;-72
2022/02/23 08:40:56;;;;;;;5.40;1.43;;;11.60;99.90;;;;;;5012507;28;20239;-74
2022/02/23 08:43:23;;;;;;;5.57;1.33;;;11.60;99.90;;;;;;5011771;28;20293;-72
2022/02/23 08:45:50;;;;;;;3.17;1.20;;;11.50;99.90;;;;;;5011718;28;20206;-76
2022/02/23 08:48:17;;;;;;;4.67;1.40;;;11.60;99.90;;;;;;5011186;28;20284;-73
2022/02/23 08:50:44;;;;;;;3.47;1.27;;;11.80;99.90;;;;;;5011817;28;20225;-73
2022/02/23 08:53:11;;;;;;;4.23;1.20;;;12.00;99.90;;;;;;5012218;28;20739;-74
2022/02/23 08:55:39;;;;;;;6.43;1.50;;;11.90;99.90;;;;;;5012272;28;20649;-73
2022/02/23 08:58:06;;;;;;;7.13;1.60;;;11.80;99.90;;;;;;5012169;28;20213;-72
2022/02/23 09:00:33;;;;;;;6.30;1.93;;;12.00;99.90;;;;;;5012512;28;20230;-72
2022/02/23 09:02:59;;;;;;;6.50;1.63;;;12.20;99.90;;;;;;5011931;28;20206;-72
2022/02/23 09:05:26;;;;;;;10.10;2.37;;;12.30;99.90;;;;;;5002449;28;20566;-72
2022/02/23 09:07:53;;;;;;;4.50;1.73;;;12.10;99.90;;;;;;5009427;28;20206;-74
2022/02/23 09:10:20;;;;;;;6.43;1.70;;;11.80;99.90;;;;;;5012109;28;20221;-72
2022/02/23 09:12:48;;;;;;;4.37;1.70;;;11.90;99.90;;;;;;5011874;28;20213;-73
2022/02/23 09:15:15;;;;;;;8.03;1.73;;;11.90;99.90;;;;;;5009967;28;20232;-72
2022/02/23 09:17:42;;;;;;;9.00;1.70;;;12.10;99.90;;;;;;5011177;28;20208;-74
2022/02/23 09:20:10;;;;;;;5.33;1.73;;;11.90;99.90;;;;;;5011811;28;20221;-75
2022/02/23 09:22:37;;;;;;;4.57;1.60;;;11.60;99.90;;;;;;5011971;28;20236;-73
2022/02/23 09:25:05;;;;;;;7.70;1.50;;;11.20;99.90;;;;;;5012072;28;20217;-72
2022/02/23 09:27:32;;;;;;;7.63;2.10;;;10.90;99.90;;;;;;5012137;28;20216;-71
2022/02/23 09:30:00;;;;;;;8.43;1.70;;;10.80;99.90;;;;;;5013696;28;20257;-73
2022/02/23 09:32:26;;;;;;;7.73;1.33;;;10.80;99.90;;;;;;4998092;28;20298;-72
2022/02/23 09:34:53;;;;;;;8.00;1.37;;;10.60;99.90;;;;;;4996137;28;20233;-72
2022/02/23 09:37:20;;;;;;;3.57;1.00;;;10.50;99.90;;;;;;5009826;28;20204;-74
2022/02/23 09:39:48;;;;;;;6.80;2.07;;;10.50;99.90;;;;;;5018928;28;20217;-74
2022/02/23 09:42:15;;;;;;;3.53;1.10;;;11.00;99.90;;;;;;5011462;28;20233;-72
2022/02/23 09:44:43;;;;;;;5.80;1.23;;;10.90;99.90;;;;;;5013668;28;20249;-71
2022/02/23 09:47:12;;;;;;;4.20;0.90;;;10.80;99.90;;;;;;5003676;28;20204;-70
2022/02/23 09:49:41;;;;;;;3.00;0.97;;;10.90;99.90;;;;;;5007533;28;20316;-70
2022/02/23 09:52:08;;;;;;;4.00;1.00;;;10.80;99.90;;;;;;5013760;28;20201;-76
2022/02/23 09:54:35;;;;;;;3.60;0.70;;;10.70;99.90;;;;;;5013913;28;20301;-73
2022/02/23 09:57:02;;;;;;;4.57;1.13;;;10.80;99.90;;;;;;5014725;28;20213;-70
2022/02/23 09:59:29;;;;;;;8.23;1.10;;;10.80;99.90;;;;;;5014449;28;20716;-70
2022/02/23 10:01:59;;;;;;;3.70;1.00;;;10.90;99.90;;;;;;5010944;28;20257;-70
2022/02/23 10:04:27;;;;;;;3.60;0.80;;;10.90;99.90;;;;;;5003328;28;20588;-70
2022/02/23 10:07:00;;;;;;;3.80;0.90;;;11.10;99.90;;;;;;5013673;28;20220;-70
2022/02/23 10:09:27;;;;;;;3.53;0.83;;;11.20;99.90;;;;;;5014691;28;20226;-69
2022/02/23 10:11:54;;;;;;;5.03;0.90;;;11.10;99.90;;;;;;5013262;28;20220;-69
2022/02/23 10:14:20;;;;;;;10.27;0.97;;;11.10;99.90;;;;;;5002303;28;20552;-75
2022/02/23 10:16:49;;;;;;;3.43;1.03;;;11.20;99.90;;;;;;5014322;28;20205;-69
2022/02/23 10:19:18;;;;;;;4.63;0.93;;;11.20;99.90;;;;;;5014620;28;20221;-70
2022/02/23 10:22:05;;;;;;;4.47;0.70;;;11.10;99.90;;;;;;5012959;28;20631;-69
2022/02/23 10:24:34;;;;;;;2.03;0.80;;;10.90;99.90;;;;;;4994035;28;20568;-75
2022/02/23 10:27:04;;;;;;;5.60;0.87;;;10.80;99.90;;;;;;5013638;28;20568;-75
2022/02/23 10:29:34;;;;;;;3.60;0.70;;;10.80;99.90;;;;;;5014163;28;20226;-76
2022/02/23 10:32:06;;;;;;;2.03;0.70;;;10.90;99.90;;;;;;5013168;28;20301;-75
2022/02/23 10:34:38;;;;;;;3.93;0.80;;;10.90;99.90;;;;;;5009018;28;20542;-75
2022/02/23 10:37:08;;;;;;;6.47;0.80;;;11.00;99.90;;;;;;5013334;28;20198;-76
2022/02/23 10:39:42;;;;;;;3.67;0.67;;;11.10;99.90;;;;;;4994430;28;20237;-75
2022/02/23 10:42:12;;;;;;;4.10;0.63;;;11.10;99.90;;;;;;4994485;28;20708;-74
2022/02/23 10:44:44;;;;;;;7.43;0.67;;;11.20;99.90;;;;;;5001410;28;20289;-74
2022/02/23 10:47:21;;;;;;;4.80;1.23;;;11.20;99.90;;;;;;5012848;28;20198;-74
2022/02/23 10:50:00;;;;;;;6.50;0.70;;;11.40;99.90;;;;;;4994516;28;20214;-75
2022/02/23 10:52:31;;;;;;;4.73;0.80;;;11.40;99.90;;;;;;4994482;28;20233;-74
2022/02/23 10:55:15;;;;;;;4.93;1.10;;;11.40;99.90;;;;;;4994704;28;20202;-73
2022/02/23 10:57:47;;;;;;;4.80;1.00;;;11.30;99.90;;;;;;4994959;28;20238;-74
2022/02/23 11:00:16;;;;;;;5.50;0.53;;;11.30;99.90;;;;;;5005693;28;20229;-74
2022/02/23 11:02:43;;;;;;;5.47;0.80;;;11.30;99.90;;;;;;5012997;28;20236;-74
2022/02/23 11:05:10;;;;;;;1.67;0.63;;;11.10;99.90;;;;;;5013433;28;20206;-73
2022/02/23 11:07:42;;;;;;;3.13;0.50;;;11.20;99.90;;;;;;5007969;28;20227;-74
2022/02/23 11:10:13;;;;;;;5.57;1.17;;;11.20;99.90;;;;;;5012258;28;20221;-75
2022/02/23 11:12:44;;;;;;;6.53;0.90;;;11.20;99.90;;;;;;5012489;28;20198;-73
2022/02/23 11:15:13;;;;;;;2.83;0.40;;;11.10;99.90;;;;;;5012532;28;20205;-74
2022/02/23 11:17:40;;;;;;;3.60;0.40;;;11.10;99.90;;;;;;5013548;28;20197;-74
2022/02/23 11:20:10;;;;;;;4.83;0.67;;;11.20;99.90;;;;;;5013493;28;20225;-77
2022/02/23 11:22:39;;;;;;;5.33;0.70;;;11.20;99.90;;;;;;5014076;28;20284;-80
2022/02/23 11:25:07;;;;;;;5.20;0.60;;;11.20;99.90;;;;;;5006327;28;20206;-77
2022/02/23 11:27:37;;;;;;;2.33;0.60;;;11.30;99.90;;;;;;4993871;28;20217;-80
2022/02/23 11:30:06;;;;;;;2.10;0.33;;;11.40;99.90;;;;;;4993373;28;20691;-74
2022/02/23 11:32:38;;;;;;;2.23;0.50;;;11.40;99.90;;;;;;5005127;28;20209;-77
2022/02/23 11:35:07;;;;;;;3.90;0.90;;;11.50;99.90;;;;;;5013628;28;20208;-78
2022/02/23 11:37:34;;;;;;;0.93;0.37;;;11.60;99.90;;;;;;5013272;28;20205;-78
2022/02/23 11:40:03;;;;;;;1.73;0.97;;;11.60;99.90;;;;;;5012950;28;20620;-75
2022/02/23 11:42:35;;;;;;;3.13;0.50;;;11.50;99.90;;;;;;4996194;28;20234;-73
2022/02/23 11:45:13;;;;;;;0.80;0.50;;;11.50;99.90;;;;;;4995473;28;20672;-75
2022/02/23 11:47:47;;;;;;;2.13;0.60;;;11.50;99.90;;;;;;5001129;28;20198;-78
2022/02/23 11:50:19;;;;;;;2.30;0.50;;;11.60;99.90;;;;;;5006618;28;20660;-76
2022/02/23 11:52:50;;;;;;;3.37;0.67;;;11.60;99.90;;;;;;5010766;28;20205;-77
2022/02/23 11:55:20;;;;;;;3.70;0.40;;;11.60;99.90;;;;;;5008210;28;20209;-77
2022/02/23 11:57:48;;;;;;;2.07;0.30;;;11.60;99.90;;;;;;5011695;28;20229;-75
2022/02/23 12:00:18;;;;;;;1.63;0.50;;;11.70;99.90;;;;;;5008925;28;20239;-75
2022/02/23 12:02:57;;;;;;;2.00;0.50;;;11.60;99.90;;;;;;5011989;28;20299;-78
2022/02/23 12:05:36;;;;;;;5.07;1.07;;;11.80;99.90;;;;;;5009441;28;20388;-77
2022/02/23 12:08:04;;;;;;;2.40;0.40;;;11.80;99.90;;;;;;5010203;28;20569;-77
2022/02/23 12:10:33;;;;;;;2.80;0.37;;;11.90;99.90;;;;;;5009973;28;20688;-77
2022/02/23 12:13:01;;;;;;;2.93;0.37;;;12.00;99.90;;;;;;5011751;28;20217;-75
2022/02/23 12:15:34;;;;;;;2.77;0.47;;;12.00;99.90;;;;;;5011155;28;20686;-76
2022/02/23 12:18:01;;;;;;;2.60;0.50;;;12.00;99.90;;;;;;5011760;28;20212;-75
2022/02/23 12:20:54;;;;;;;0.77;0.30;;;11.90;99.90;;;;;;5012640;28;20226;-75
2022/02/23 12:23:35;;;;;;;5.83;0.60;;;11.90;99.90;;;;;;5002654;28;20233;-75
2022/02/23 12:26:16;;;;;;;4.10;0.70;;;12.00;99.90;;;;;;5008321;28;20198;-74
2022/02/23 12:28:47;;;;;;;1.23;0.40;;;12.00;99.90;;;;;;5008330;28;20201;-76
2022/02/23 12:31:17;;;;;;;2.83;0.27;;;12.10;99.90;;;;;;5007664;28;20723;-74
2022/02/23 12:33:45;;;;;;;5.73;0.40;;;12.10;99.90;;;;;;5008261;28;20583;-75
2022/02/23 12:36:15;;;;;;;3.13;0.50;;;12.00;99.90;;;;;;5011159;28;20198;-77
2022/02/23 12:38:45;;;;;;;2.20;0.40;;;11.90;99.90;;;;;;4992702;28;20585;-79
2022/02/23 12:41:19;;;;;;;1.70;0.57;;;11.80;99.90;;;;;;4992792;28;20212;-76
2022/02/23 12:43:59;;;;;;;3.27;0.40;;;11.90;99.90;;;;;;5005449;28;20237;-77
2022/02/23 12:46:27;;;;;;;0.93;0.27;;;11.90;99.90;;;;;;5011902;28;20675;-77
2022/02/23 12:48:57;;;;;;;2.37;0.30;;;11.80;99.90;;;;;;5011606;28;20212;-73
2022/02/23 12:51:25;;;;;;;0.77;0.40;;;11.60;99.90;;;;;;5004238;28;20203;-74
2022/02/23 12:53:57;;;;;;;1.93;0.50;;;11.60;99.90;;;;;;5002660;28;20220;-77
2022/02/23 12:56:27;;;;;;;2.53;0.40;;;11.90;99.90;;;;;;5003626;28;20293;-78
2022/02/23 12:58:56;;;;;;;5.07;0.60;;;12.10;99.90;;;;;;4992728;28;20713;-74
2022/02/23 13:01:26;;;;;;;1.57;0.63;;;12.00;99.90;;;;;;5006700;28;20212;-74
2022/02/23 13:03:57;;;;;;;6.13;0.40;;;11.80;99.90;;;;;;5007634;28;20234;-76